Time;durP1;ratioP1;P1;durP2;ratioP2;P2;SDS_P1;SDS_P2;PMS_P1;PMS_P2;Temp;Humidity;BMP_temperature;BMP_pressure;BME280_temperature;BME280_humidity;BME280_pressure;Samples;Min_cycle;Max_cycle;Signal;HPM_P1;HPM_P2
2020/12/17 00:00:07;;;;;;;34.80;29.50;;;;;;;8.01;92.27;101490.88;5014073;28;20056;-81
2020/12/17 00:03:11;;;;;;;37.17;28.77;;;;;;;7.98;92.12;101489.25;5014193;28;20064;-81
2020/12/17 00:06:15;;;;;;;32.60;27.95;;;;;;;8.01;92.14;101491.75;5014166;28;20423;-81
2020/12/17 00:09:21;;;;;;;32.97;27.50;;;;;;;8.03;92.03;101484.50;5013058;28;20389;-80
2020/12/17 00:12:25;;;;;;;34.53;27.48;;;;;;;8.06;91.58;101489.66;5014057;28;20057;-81
2020/12/17 00:15:29;;;;;;;34.75;29.25;;;;;;;8.07;91.98;101486.06;5013162;28;20049;-80
2020/12/17 00:18:33;;;;;;;33.30;28.92;;;;;;;8.07;91.66;101482.50;5013478;28;20607;-79
2020/12/17 00:21:37;;;;;;;36.83;27.90;;;;;;;8.05;91.72;101476.41;5013910;28;20401;-78
2020/12/17 00:24:42;;;;;;;34.00;29.45;;;;;;;8.05;91.69;101476.41;5014231;28;20049;-81
2020/12/17 00:27:46;;;;;;;35.17;30.88;;;;;;;8.05;91.42;101474.56;5013946;28;20053;-81
2020/12/17 00:30:51;;;;;;;36.72;31.95;;;;;;;8.01;91.49;101473.03;5013962;28;20057;-81
2020/12/17 00:33:55;;;;;;;35.95;31.30;;;;;;;8.03;92.02;101480.94;5013330;28;20076;-80
2020/12/17 00:36:59;;;;;;;37.63;32.78;;;;;;;7.97;91.73;101479.53;5013902;28;20057;-80
2020/12/17 00:40:07;;;;;;;38.33;32.80;;;;;;;7.98;91.46;101475.88;5013975;28;20056;-81
2020/12/17 00:43:10;;;;;;;38.22;32.95;;;;;;;7.99;91.86;101480.28;5012842;28;20061;-80
2020/12/17 00:46:16;;;;;;;43.40;33.63;;;;;;;8.02;91.36;101472.09;5012941;28;20077;-80
2020/12/17 00:49:21;;;;;;;38.00;33.83;;;;;;;8.01;91.44;101485.53;5013661;28;20045;-80
2020/12/17 00:52:25;;;;;;;39.80;32.85;;;;;;;7.98;91.55;101480.34;5012481;28;20056;-79
2020/12/17 00:55:30;;;;;;;39.00;34.70;;;;;;;8.01;91.43;101480.19;5012634;28;20390;-81
2020/12/17 00:58:34;;;;;;;42.25;34.58;;;;;;;8.01;91.31;101482.84;5013007;28;20049;-80
2020/12/17 01:01:38;;;;;;;40.90;34.95;;;;;;;8.02;91.38;101492.63;5013053;28;20049;-81
2020/12/17 01:04:42;;;;;;;39.35;33.60;;;;;;;8.05;91.24;101485.25;5013357;28;20060;-81
2020/12/17 01:07:46;;;;;;;38.80;34.47;;;;;;;8.11;90.93;101490.25;5013557;28;20041;-80
2020/12/17 01:10:50;;;;;;;38.15;34.05;;;;;;;8.11;90.91;101492.06;5012378;28;20159;-79
2020/12/17 01:13:55;;;;;;;39.42;34.22;;;;;;;8.00;90.87;101482.00;5013704;28;20060;-80
2020/12/17 01:17:01;;;;;;;41.00;35.40;;;;;;;7.98;91.22;101491.91;5012548;28;20492;-81
2020/12/17 01:20:06;;;;;;;40.70;35.45;;;;;;;7.94;91.23;101498.41;5011909;28;20057;-80
2020/12/17 01:23:10;;;;;;;40.95;35.35;;;;;;;7.95;91.74;101480.56;5013335;28;20512;-81
2020/12/17 01:26:14;;;;;;;41.20;36.67;;;;;;;7.95;91.42;101483.22;5013397;28;20484;-81
2020/12/17 01:29:19;;;;;;;39.70;35.42;;;;;;;7.95;91.51;101481.41;5014737;28;20049;-81
2020/12/17 01:32:23;;;;;;;43.08;36.70;;;;;;;7.91;92.17;101487.88;5016822;28;20479;-81
2020/12/17 01:35:27;;;;;;;43.83;37.75;;;;;;;7.92;92.04;101491.44;5016769;28;20045;-81
2020/12/17 01:38:33;;;;;;;45.47;38.50;;;;;;;7.95;92.15;101501.94;5016718;28;20053;-80
2020/12/17 01:41:37;;;;;;;47.00;37.28;;;;;;;7.98;92.05;101493.72;5016559;28;20054;-81
2020/12/17 01:44:42;;;;;;;40.85;36.45;;;;;;;8.01;91.78;101506.91;5015634;28;20065;-81
2020/12/17 01:47:48;;;;;;;46.17;38.80;;;;;;;7.93;92.03;101503.81;5016786;28;20049;-81
2020/12/17 01:50:52;;;;;;;45.38;36.88;;;;;;;7.98;92.03;101507.09;5015264;28;20057;-81
2020/12/17 01:53:56;;;;;;;40.47;36.15;;;;;;;8.00;91.90;101506.06;5015997;28;20061;-81
2020/12/17 01:57:03;;;;;;;43.97;38.10;;;;;;;8.00;92.19;101502.53;5016078;28;20049;-80
2020/12/17 02:00:08;;;;;;;43.53;37.42;;;;;;;7.99;91.96;101504.34;5016284;28;20052;-81
2020/12/17 02:03:12;;;;;;;42.30;37.00;;;;;;;7.99;91.97;101504.34;5015428;28;20057;-81
2020/12/17 02:06:17;;;;;;;40.53;36.33;;;;;;;8.01;92.45;101496.22;5016424;28;20480;-79
2020/12/17 02:09:21;;;;;;;41.00;36.00;;;;;;;8.00;92.19;101486.50;5015348;28;20053;-79
2020/12/17 02:12:49;;;;;;;45.03;36.28;;;;;;;7.98;92.04;101483.03;5015304;28;20057;-79
2020/12/17 02:15:54;;;;;;;42.65;36.85;;;;;;;8.01;91.84;101504.25;5014765;28;20049;-81
2020/12/17 02:18:59;;;;;;;44.35;38.28;;;;;;;8.01;92.25;101489.06;5015406;28;20053;-81
2020/12/17 02:22:03;;;;;;;46.67;39.63;;;;;;;8.01;91.90;101498.91;5015861;28;20072;-81
2020/12/17 02:25:13;;;;;;;45.53;40.53;;;;;;;7.95;92.09;101507.28;5014704;28;20049;-81
2020/12/17 02:28:17;;;;;;;50.00;42.90;;;;;;;7.96;92.30;101515.22;5015583;28;20392;-81
2020/12/17 02:31:24;;;;;;;48.58;41.15;;;;;;;7.95;92.41;101500.09;5015787;28;20045;-82
2020/12/17 02:34:28;;;;;;;50.97;44.40;;;;;;;7.95;92.50;101497.44;5015669;28;20056;-81
2020/12/17 02:37:34;;;;;;;47.53;41.95;;;;;;;8.00;92.31;101511.41;5014392;28;20062;-81
2020/12/17 02:40:38;;;;;;;48.17;42.83;;;;;;;8.01;92.03;101505.13;5015074;28;20077;-81
2020/12/17 02:43:42;;;;;;;50.40;44.30;;;;;;;8.00;91.95;101494.53;5015494;28;20072;-81
2020/12/17 02:46:47;;;;;;;51.08;45.65;;;;;;;8.00;91.98;101491.84;5014606;28;20057;-80
2020/12/17 02:49:51;;;;;;;55.38;45.80;;;;;;;8.01;92.18;101494.41;5014275;28;20060;-81
2020/12/17 02:52:55;;;;;;;52.28;45.55;;;;;;;8.03;92.10;101491.63;5015512;28;20061;-79
2020/12/17 02:55:59;;;;;;;52.60;46.97;;;;;;;7.99;91.88;101490.97;5014657;28;20061;-80
2020/12/17 02:59:04;;;;;;;54.10;47.42;;;;;;;7.98;92.25;101491.06;5015215;28;20385;-81
2020/12/17 03:02:08;;;;;;;54.78;47.60;;;;;;;7.97;92.38;101490.22;5003072;28;20061;-81
2020/12/17 03:05:13;;;;;;;53.15;47.42;;;;;;;7.96;92.52;101483.13;5014578;28;20057;-80
2020/12/17 03:08:18;;;;;;;53.50;46.50;;;;;;;7.96;92.32;101488.47;5015356;28;20076;-81
2020/12/17 03:11:22;;;;;;;54.42;46.38;;;;;;;7.96;92.31;101482.25;5015323;28;20056;-80
2020/12/17 03:14:27;;;;;;;55.00;48.47;;;;;;;7.99;92.69;101468.72;5015137;28;20056;-79
2020/12/17 03:17:31;;;;;;;54.45;48.42;;;;;;;7.95;92.58;101469.88;5014829;28;20045;-81
2020/12/17 03:20:35;;;;;;;58.72;50.30;;;;;;;7.90;92.50;101470.13;4975822;28;20054;-79
2020/12/17 03:23:39;;;;;;;54.58;48.60;;;;;;;7.93;92.45;101466.41;4975376;28;20062;-80
2020/12/17 03:26:44;;;;;;;55.20;47.70;;;;;;;7.96;92.39;101466.22;4975994;28;20377;-81
2020/12/17 03:29:48;;;;;;;56.72;48.30;;;;;;;7.97;92.71;101470.63;4974818;28;20070;-80
2020/12/17 03:32:52;;;;;;;54.95;47.85;;;;;;;7.94;92.55;101458.31;4974998;28;20053;-80
2020/12/17 03:35:57;;;;;;;57.47;51.10;;;;;;;7.85;92.70;101464.22;4974970;28;20054;-80
2020/12/17 03:39:01;;;;;;;63.00;54.85;;;;;;;7.81;92.50;101451.94;4975266;28;20390;-81
2020/12/17 03:42:05;;;;;;;63.55;55.70;;;;;;;7.72;92.68;101457.84;4975664;28;20061;-80
2020/12/17 03:45:10;;;;;;;64.18;56.05;;;;;;;7.73;92.99;101459.56;4975682;28;20054;-80
2020/12/17 03:48:15;;;;;;;63.60;55.55;;;;;;;7.72;92.76;101457.84;4975430;28;20062;-79
2020/12/17 03:51:19;;;;;;;62.45;53.90;;;;;;;7.68;92.55;101461.63;4974370;28;20053;-80
2020/12/17 03:54:23;;;;;;;65.05;54.83;;;;;;;7.63;93.03;101455.69;4974811;28;20050;-80
2020/12/17 03:57:28;;;;;;;61.95;52.72;;;;;;;7.69;93.00;101464.22;4975261;28;20050;-79
2020/12/17 04:00:32;;;;;;;56.13;49.28;;;;;;;7.63;93.05;101461.91;4974558;28;20066;-80
2020/12/17 04:03:36;;;;;;;56.38;48.67;;;;;;;7.68;92.85;101456.28;4974203;28;20058;-80
2020/12/17 04:06:41;;;;;;;53.20;47.45;;;;;;;7.65;93.07;101459.16;4975040;28;20050;-79
2020/12/17 04:09:45;;;;;;;53.67;46.53;;;;;;;7.66;92.92;101460.88;4963226;28;20058;-79
2020/12/17 04:12:50;;;;;;;47.97;41.72;;;;;;;7.68;93.11;101464.31;4974243;28;20054;-80
2020/12/17 04:15:54;;;;;;;48.22;40.60;;;;;;;7.60;93.06;101464.78;4974989;28;20386;-79
2020/12/17 04:18:58;;;;;;;44.65;39.00;;;;;;;7.60;93.22;101463.91;4991959;28;20052;-79
2020/12/17 04:22:03;;;;;;;42.90;38.33;;;;;;;7.63;93.06;101464.56;5013212;28;20061;-79
2020/12/17 04:25:07;;;;;;;40.60;35.95;;;;;;;7.65;92.87;101453.81;5012862;28;20045;-79
2020/12/17 04:28:11;;;;;;;42.55;35.30;;;;;;;7.59;93.04;101455.03;5013335;28;20373;-80
2020/12/17 04:31:15;;;;;;;39.88;34.50;;;;;;;7.59;92.95;101455.03;5012522;28;20512;-80
2020/12/17 04:34:20;;;;;;;43.03;34.58;;;;;;;7.63;92.96;101456.56;5013241;28;20093;-81
2020/12/17 04:37:24;;;;;;;37.53;32.42;;;;;;;7.58;92.77;101447.94;5013917;28;20048;-80
2020/12/17 04:40:29;;;;;;;39.67;32.88;;;;;;;7.61;92.89;101453.13;5014071;28;20386;-80
2020/12/17 04:43:33;;;;;;;38.55;32.47;;;;;;;7.60;92.81;101448.75;5013755;28;20052;-80
2020/12/17 04:46:41;;;;;;;39.08;32.28;;;;;;;7.58;93.11;101455.97;5013827;28;20052;-79
2020/12/17 04:49:52;;;;;;;35.85;30.98;;;;;;;7.58;93.06;101463.97;5014010;28;20053;-81
2020/12/17 04:53:00;;;;;;;33.97;30.27;;;;;;;7.66;92.69;101479.56;5013723;28;20049;-80
2020/12/17 04:56:04;;;;;;;35.45;28.83;;;;;;;7.64;92.66;101476.13;5013917;28;20069;-80
2020/12/17 04:59:09;;;;;;;36.67;29.40;;;;;;;7.64;92.67;101481.47;5013917;28;20064;-80
2020/12/17 05:02:16;;;;;;;34.33;30.60;;;;;;;7.62;92.48;101476.22;5013869;28;20049;-81
2020/12/17 05:05:21;;;;;;;35.70;28.88;;;;;;;7.68;92.50;101486.56;5017399;28;20516;-82
2020/12/17 05:08:26;;;;;;;34.88;29.15;;;;;;;7.62;92.50;101489.59;5005078;28;20057;-82
2020/12/17 05:11:30;;;;;;;36.70;31.50;;;;;;;7.69;92.48;101490.09;5017113;28;20404;-81
2020/12/17 05:14:35;;;;;;;33.70;29.90;;;;;;;7.69;92.11;101484.75;5017505;28;20049;-82
2020/12/17 05:17:46;;;;;;;38.67;32.25;;;;;;;7.72;92.36;101493.47;5017661;28;20483;-81
2020/12/17 05:20:51;;;;;;;39.13;31.38;;;;;;;7.69;92.46;101493.63;5016462;28;20049;-81
2020/12/17 05:23:55;;;;;;;36.25;32.35;;;;;;;7.71;92.51;101494.41;5016822;28;20080;-80
2020/12/17 05:27:00;;;;;;;37.83;33.67;;;;;;;7.72;92.83;101489.91;5016972;28;20053;-80
2020/12/17 05:30:05;;;;;;;42.47;34.33;;;;;;;7.74;92.72;101493.34;5015923;28;20065;-80
2020/12/17 05:33:09;;;;;;;37.28;33.28;;;;;;;7.76;92.94;101504.81;5016514;28;20052;-77
2020/12/17 05:36:20;;;;;;;45.15;36.60;;;;;;;7.74;92.88;101496.91;5016057;28;20049;-80
2020/12/17 05:39:24;;;;;;;40.60;35.95;;;;;;;7.74;93.22;101494.22;5016553;28;20048;-80
2020/12/17 05:42:29;;;;;;;40.70;36.13;;;;;;;7.76;93.76;101503.00;5016381;28;20061;-80
2020/12/17 05:45:34;;;;;;;40.67;35.25;;;;;;;7.80;93.64;101503.72;5016151;28;20060;-81
2020/12/17 05:48:38;;;;;;;44.53;37.33;;;;;;;7.81;94.01;101503.59;5016124;28;20065;-80
2020/12/17 05:51:44;;;;;;;40.97;36.50;;;;;;;7.81;93.47;101510.75;5015864;28;20064;-79
2020/12/17 05:54:56;;;;;;;44.08;39.28;;;;;;;7.82;93.74;101515.16;5016488;28;20049;-80
2020/12/17 05:58:00;;;;;;;43.67;38.88;;;;;;;7.82;93.80;101515.16;5016414;28;20053;-80
2020/12/17 06:01:12;;;;;;;45.08;39.97;;;;;;;7.80;94.15;101517.91;5016413;28;20480;-80
2020/12/17 06:04:17;;;;;;;69.15;56.13;;;;;;;7.79;94.20;101518.88;5016146;28;20061;-80
2020/12/17 06:07:31;;;;;;;182.75;134.75;;;;;;;7.74;94.31;101514.75;5016750;28;20117;-81
2020/12/17 06:10:46;;;;;;;91.85;73.85;;;;;;;7.74;94.84;101514.75;5016242;28;20184;-78
2020/12/17 06:13:57;;;;;;;54.03;47.38;;;;;;;7.73;94.86;101518.34;5015610;28;20049;-79
2020/12/17 06:17:07;;;;;;;60.70;49.92;;;;;;;7.73;95.24;101529.03;5015536;28;20044;-78
2020/12/17 06:20:12;;;;;;;56.15;47.75;;;;;;;7.79;95.50;101531.38;5015090;28;20045;-79
2020/12/17 06:23:17;;;;;;;48.95;43.55;;;;;;;7.81;95.48;101533.00;5015869;28;20627;-81
2020/12/17 06:26:23;;;;;;;49.80;44.40;;;;;;;7.73;95.62;101535.25;5014923;28;20056;-81
2020/12/17 06:29:38;;;;;;;52.08;44.83;;;;;;;7.75;95.77;101529.84;4984359;28;20509;-81
2020/12/17 06:32:43;;;;;;;50.92;44.75;;;;;;;7.77;95.91;101530.59;4996197;28;20053;-80
2020/12/17 06:36:31;;;;;;;51.20;45.58;;;;;;;7.72;95.87;101528.19;4995209;28;20058;-80
2020/12/17 06:39:36;;;;;;;55.67;47.78;;;;;;;7.73;96.39;101537.06;5013786;28;20077;-80
2020/12/17 06:42:40;;;;;;;51.35;44.05;;;;;;;7.76;96.41;101535.09;5015429;28;20060;-81
2020/12/17 06:45:44;;;;;;;;;;;;;;;7.70;95.94;101537.25;5016130;28;20049;-80
2020/12/17 06:48:48;;;;;;;49.35;43.90;;;;;;;7.69;96.10;101539.06;5015200;28;19917;-81
2020/12/17 06:52:09;;;;;;;52.42;44.17;;;;;;;7.69;96.26;101535.50;5015622;28;20045;-81
2020/12/17 06:55:38;;;;;;;57.25;46.00;;;;;;;7.72;96.22;101544.22;5014396;28;20056;-81
2020/12/17 06:58:44;;;;;;;57.67;47.40;;;;;;;7.65;96.50;101550.00;5015457;28;20081;-80
2020/12/17 07:01:51;;;;;;;55.20;47.53;;;;;;;7.68;96.60;101555.16;5014702;28;20053;-81
2020/12/17 07:04:55;;;;;;;61.83;51.42;;;;;;;7.69;97.12;101556.91;5014659;28;20068;-80
2020/12/17 07:08:00;;;;;;;57.88;48.85;;;;;;;7.70;96.81;101551.44;5015180;28;20053;-80
2020/12/17 07:11:04;;;;;;;64.28;52.72;;;;;;;7.59;96.84;101555.69;5014982;28;20053;-77
2020/12/17 07:14:27;;;;;;;69.47;55.97;;;;;;;7.55;97.34;101556.81;5014665;28;20488;-77
2020/12/17 07:17:31;;;;;;;68.88;53.85;;;;;;;7.53;97.78;101556.88;5014106;28;20049;-76
2020/12/17 07:20:35;;;;;;;74.20;56.83;;;;;;;7.50;98.16;101556.22;5009982;28;20045;-77
2020/12/17 07:23:41;;;;;;;81.80;58.58;;;;;;;7.45;97.90;101550.25;5010679;28;20072;-77
2020/12/17 07:26:45;;;;;;;75.95;60.25;;;;;;;7.46;98.22;101550.16;5002292;28;20061;-77
2020/12/17 07:29:52;;;;;;;76.55;60.35;;;;;;;7.47;98.71;101564.41;5010946;28;20045;-77
2020/12/17 07:32:59;;;;;;;79.32;60.40;;;;;;;7.52;98.92;101557.84;5006106;28;20085;-77
2020/12/17 07:36:06;;;;;;;77.68;57.63;;;;;;;7.51;98.83;101565.94;4992370;28;20512;-77
2020/12/17 07:39:11;;;;;;;74.53;55.72;;;;;;;7.51;98.69;101568.59;4978969;28;20065;-77
2020/12/17 07:42:16;;;;;;;80.82;56.78;;;;;;;7.52;98.94;101573.88;4979349;28;20041;-77
2020/12/17 07:45:52;;;;;;;81.45;57.28;;;;;;;7.54;98.84;101571.13;4992307;28;20057;-78
2020/12/17 07:48:57;;;;;;;71.63;54.65;;;;;;;7.62;98.99;101574.22;4981203;28;20073;-79
2020/12/17 07:52:02;;;;;;;70.00;55.13;;;;;;;7.68;99.00;101576.53;4991851;28;20119;-79
2020/12/17 07:55:06;;;;;;;69.10;53.42;;;;;;;7.78;99.26;101575.06;4992405;28;20058;-79
2020/12/17 07:58:11;;;;;;;64.75;51.15;;;;;;;7.85;99.25;101571.97;4991803;28;20053;-78
2020/12/17 08:01:16;;;;;;;64.38;50.60;;;;;;;7.93;98.75;101567.97;4992031;28;20053;-80
2020/12/17 08:04:20;;;;;;;64.90;48.92;;;;;;;7.95;98.80;101569.63;4990964;28;20057;-79
2020/12/17 08:07:24;;;;;;;60.90;47.72;;;;;;;7.98;98.75;101568.59;4991322;28;20065;-78
2020/12/17 08:10:29;;;;;;;68.07;48.90;;;;;;;7.99;98.59;101579.22;4961063;28;20134;-79
2020/12/17 08:13:34;;;;;;;68.82;50.85;;;;;;;8.04;98.09;101578.94;4984234;28;20053;-78
2020/12/17 08:16:38;;;;;;;59.72;44.60;;;;;;;8.04;97.85;101574.47;5013445;28;20060;-79
2020/12/17 08:19:43;;;;;;;57.28;43.75;;;;;;;8.12;97.74;101574.84;4993240;28;20515;-79
2020/12/17 08:22:48;;;;;;;57.03;44.75;;;;;;;8.04;97.24;101578.94;5004528;28;20124;-78
2020/12/17 08:25:52;;;;;;;64.88;45.40;;;;;;;8.04;97.13;101565.56;5013197;28;20048;-79
2020/12/17 08:28:57;;;;;;;60.35;43.88;;;;;;;8.07;97.05;101568.06;5012012;28;20053;-80
2020/12/17 08:32:08;;;;;;;56.83;42.25;;;;;;;8.06;97.16;101574.34;5012794;28;20057;-80
2020/12/17 08:35:12;;;;;;;58.35;43.40;;;;;;;8.05;97.01;101578.00;5013539;28;20073;-80
2020/12/17 08:38:16;;;;;;;60.97;44.33;;;;;;;8.05;96.78;101572.66;5011789;28;20112;-80
2020/12/17 08:41:27;;;;;;;56.33;41.30;;;;;;;8.05;96.67;101575.31;5017352;28;20069;-78
2020/12/17 08:44:35;;;;;;;51.92;41.78;;;;;;;8.12;96.58;101582.03;5015604;28;20053;-79
2020/12/17 08:47:41;;;;;;;51.90;40.20;;;;;;;8.18;96.35;101584.34;5016372;28;20049;-80
2020/12/17 08:50:46;;;;;;;51.22;40.28;;;;;;;8.27;96.23;101579.34;5017316;28;20075;-79
2020/12/17 08:53:50;;;;;;;49.17;38.17;;;;;;;8.37;96.49;101585.88;5016307;28;20056;-80
2020/12/17 08:57:11;;;;;;;48.60;38.70;;;;;;;8.41;95.67;101583.91;5016869;28;20080;-79
2020/12/17 09:00:19;;;;;;;50.70;39.25;;;;;;;8.47;95.54;101587.06;5015901;28;20049;-80
2020/12/17 09:03:25;;;;;;;44.05;35.58;;;;;;;8.51;95.21;101601.13;5015730;28;20049;-78
2020/12/17 09:06:31;;;;;;;46.95;39.38;;;;;;;8.62;95.23;101595.97;5015976;28;20041;-79
2020/12/17 09:09:38;;;;;;;44.58;36.42;;;;;;;8.77;94.28;101596.88;5012482;28;20049;-80
2020/12/17 09:12:43;;;;;;;45.10;35.22;;;;;;;8.89;93.96;101610.38;5016017;28;20053;-80
2020/12/17 09:16:02;;;;;;;45.17;36.13;;;;;;;8.94;93.70;101610.09;5015609;28;20519;-79
2020/12/17 09:19:10;;;;;;;39.38;34.95;;;;;;;9.07;93.54;101624.47;5015530;28;20049;-79
2020/12/17 09:22:19;;;;;;;40.40;34.38;;;;;;;9.05;92.33;101619.22;5015190;28;20049;-80
2020/12/17 09:25:27;;;;;;;42.92;36.92;;;;;;;9.14;92.59;101625.81;5015995;28;20056;-79
2020/12/17 09:28:32;;;;;;;42.42;34.63;;;;;;;9.24;92.04;101623.41;5014909;28;20072;-79
2020/12/17 09:31:36;;;;;;;43.05;36.28;;;;;;;9.27;92.19;101629.47;5015961;28;20049;-79
2020/12/17 09:34:41;;;;;;;42.03;34.78;;;;;;;9.33;91.78;101629.09;5016222;28;20049;-79
2020/12/17 09:38:05;;;;;;;39.13;32.55;;;;;;;9.35;91.25;101634.34;5013353;28;20049;-79
2020/12/17 09:41:10;;;;;;;39.67;32.78;;;;;;;9.35;91.59;101629.84;5015724;28;20511;-79
2020/12/17 09:44:14;;;;;;;40.13;32.92;;;;;;;9.41;91.07;101632.13;5014448;28;20547;-79
2020/12/17 09:47:32;;;;;;;46.03;35.72;;;;;;;9.36;91.09;101636.91;5014386;28;20052;-77
2020/12/17 09:50:36;;;;;;;39.25;33.63;;;;;;;9.39;91.01;101638.53;4995337;28;20501;-77
2020/12/17 09:53:45;;;;;;;45.30;34.08;;;;;;;9.37;90.68;101644.00;5015446;28;20401;-78
2020/12/17 09:57:06;;;;;;;37.08;31.92;;;;;;;9.35;91.05;101643.25;5014869;28;20049;-79
2020/12/17 10:00:12;;;;;;;38.17;32.97;;;;;;;9.36;91.34;101638.72;4995979;28;20049;-78
2020/12/17 10:03:18;;;;;;;37.03;31.77;;;;;;;9.31;91.04;101639.00;5004926;28;20053;-79
2020/12/17 10:06:22;;;;;;;40.03;34.13;;;;;;;9.22;91.35;101631.56;5015082;28;20516;-79
2020/12/17 10:09:27;;;;;;;39.85;32.95;;;;;;;9.21;91.92;101631.66;5014529;28;20057;-80
2020/12/17 10:12:31;;;;;;;36.95;31.55;;;;;;;9.20;91.60;101628.13;5010805;28;20499;-80
2020/12/17 10:15:36;;;;;;;37.17;31.73;;;;;;;9.22;91.95;101634.25;4995672;28;20057;-79
2020/12/17 10:18:40;;;;;;;38.65;32.72;;;;;;;9.22;91.55;101620.84;5007183;28;20044;-78
2020/12/17 10:21:47;;;;;;;38.47;31.90;;;;;;;9.25;92.24;101617.13;5015394;28;20056;-80
2020/12/17 10:24:51;;;;;;;38.30;32.20;;;;;;;9.29;91.82;101621.31;5015491;28;20049;-79
2020/12/17 10:27:58;;;;;;;37.13;31.08;;;;;;;9.26;92.12;101613.50;5014796;28;20049;-80
2020/12/17 10:31:03;;;;;;;42.90;32.65;;;;;;;9.39;92.24;101615.28;5014981;28;20508;-80
2020/12/17 10:34:07;;;;;;;40.70;33.85;;;;;;;9.38;92.08;101608.19;5014298;28;20503;-79
2020/12/17 10:37:11;;;;;;;37.25;30.42;;;;;;;9.46;91.83;101621.97;5012644;28;20045;-79
2020/12/17 10:40:16;;;;;;;42.10;34.20;;;;;;;9.51;91.11;101624.38;4995125;28;20057;-79
2020/12/17 10:43:21;;;;;;;41.90;35.72;;;;;;;9.46;91.10;101616.63;5013568;28;20056;-80
2020/12/17 10:46:25;;;;;;;43.35;36.40;;;;;;;9.55;91.15;101616.06;5014206;28;20064;-79
2020/12/17 10:49:29;;;;;;;43.25;34.55;;;;;;;9.63;91.30;101616.41;5014232;28;20057;-79
2020/12/17 10:52:34;;;;;;;40.97;34.28;;;;;;;9.63;90.86;101612.88;5013972;28;20076;-79
2020/12/17 10:55:38;;;;;;;40.60;33.67;;;;;;;9.61;90.48;101614.78;5014067;28;20068;-80
2020/12/17 10:58:43;;;;;;;35.92;30.80;;;;;;;9.71;90.59;101611.44;5006356;28;20053;-80
2020/12/17 11:01:47;;;;;;;34.88;30.42;;;;;;;9.79;89.90;101606.44;5012284;28;20045;-78
2020/12/17 11:04:51;;;;;;;32.58;27.80;;;;;;;9.87;89.08;101602.41;5014757;28;20080;-79
2020/12/17 11:07:56;;;;;;;30.92;27.27;;;;;;;9.96;89.06;101599.09;5012285;28;20503;-79
2020/12/17 11:11:01;;;;;;;29.48;25.95;;;;;;;10.06;88.64;101600.22;5013883;28;20048;-80
2020/12/17 11:14:06;;;;;;;30.73;25.40;;;;;;;10.24;87.99;101607.09;5014099;28;20042;-81
2020/12/17 11:17:10;;;;;;;28.80;25.25;;;;;;;10.25;87.62;101604.31;5010952;28;20164;-79
2020/12/17 11:20:16;;;;;;;30.83;25.35;;;;;;;10.19;87.49;101609.22;4996096;28;20058;-78
2020/12/17 11:23:21;;;;;;;26.75;23.88;;;;;;;10.15;87.44;101602.31;5013691;28;20401;-79
2020/12/17 11:26:25;;;;;;;28.80;24.48;;;;;;;10.26;87.34;101594.44;5013630;28;20045;-79
2020/12/17 11:29:30;;;;;;;25.30;22.25;;;;;;;10.33;86.94;101595.75;5013616;28;20046;-79
2020/12/17 11:32:34;;;;;;;24.83;21.17;;;;;;;10.39;86.36;101593.50;5013281;28;20049;-79
2020/12/17 11:35:41;;;;;;;23.75;20.92;;;;;;;10.41;86.19;101596.97;5013142;28;20045;-78
2020/12/17 11:38:45;;;;;;;23.80;21.20;;;;;;;10.44;86.06;101587.84;5003432;28;20042;-78
2020/12/17 11:41:50;;;;;;;23.83;20.90;;;;;;;10.45;85.48;101584.19;5013722;28;20393;-78
2020/12/17 11:44:54;;;;;;;26.58;22.88;;;;;;;10.47;85.46;101597.53;5014011;28;20054;-78
2020/12/17 11:47:58;;;;;;;25.45;22.85;;;;;;;10.39;85.14;101581.94;5013025;28;20050;-78
2020/12/17 11:51:03;;;;;;;26.73;23.23;;;;;;;10.36;85.48;101584.81;5013247;28;20049;-78
2020/12/17 11:54:07;;;;;;;26.13;22.63;;;;;;;10.36;85.62;101583.00;5013169;28;20098;-78
2020/12/17 11:57:11;;;;;;;26.65;23.63;;;;;;;10.35;86.03;101580.41;5012496;28;20045;-78
2020/12/17 12:00:16;;;;;;;25.80;23.00;;;;;;;10.33;86.23;101583.19;5013394;28;20042;-78
2020/12/17 12:03:20;;;;;;;27.13;23.20;;;;;;;10.32;86.09;101583.31;5013167;28;20046;-79
2020/12/17 12:06:24;;;;;;;26.90;24.00;;;;;;;10.29;86.91;101576.31;5013100;28;20049;-78
2020/12/17 12:09:29;;;;;;;30.10;25.85;;;;;;;10.26;86.87;101575.66;5012982;28;20038;-78
2020/12/17 12:12:34;;;;;;;26.42;23.73;;;;;;;10.30;87.12;101574.47;5012157;28;20050;-79
2020/12/17 12:15:40;;;;;;;27.20;23.65;;;;;;;10.31;86.83;101563.66;5013355;28;20042;-79
2020/12/17 12:18:44;;;;;;;31.33;26.00;;;;;;;10.33;87.16;101580.50;5013279;28;20046;-79
2020/12/17 12:21:50;;;;;;;28.33;25.27;;;;;;;10.34;87.22;101576.00;5012877;28;20045;-79
2020/12/17 12:24:55;;;;;;;27.45;23.83;;;;;;;10.43;87.10;101578.94;5013572;28;20481;-79
2020/12/17 12:28:00;;;;;;;27.73;24.60;;;;;;;10.42;86.51;101568.28;5012856;28;20050;-79
2020/12/17 12:31:05;;;;;;;30.30;25.40;;;;;;;10.40;86.66;101579.13;5013143;28;20034;-79
2020/12/17 12:34:09;;;;;;;27.35;24.52;;;;;;;10.39;87.18;101574.72;5013030;28;20034;-78
2020/12/17 12:37:15;;;;;;;28.85;25.80;;;;;;;10.40;87.32;101570.22;5011021;28;20042;-78
2020/12/17 12:40:19;;;;;;;30.45;25.63;;;;;;;10.41;86.98;101561.22;5010998;28;20046;-78
2020/12/17 12:43:24;;;;;;;27.67;24.65;;;;;;;10.39;87.21;101553.25;5011220;28;20038;-78
2020/12/17 12:46:28;;;;;;;28.17;24.15;;;;;;;10.41;87.25;101555.84;5010940;28;20041;-77
2020/12/17 12:49:32;;;;;;;25.17;22.52;;;;;;;10.37;86.91;101552.50;5012329;28;20472;-78
2020/12/17 12:52:36;;;;;;;27.33;24.30;;;;;;;10.35;86.61;101565.16;5012486;28;20505;-78
2020/12/17 12:55:44;;;;;;;29.50;25.40;;;;;;;10.32;87.26;101561.84;5013383;28;20045;-78
2020/12/17 12:58:49;;;;;;;79.97;66.35;;;;;;;10.31;86.99;101550.25;5013339;28;20157;-78
2020/12/17 13:01:53;;;;;;;51.40;42.30;;;;;;;10.28;87.43;101553.13;5013021;28;20047;-78
2020/12/17 13:04:58;;;;;;;39.75;32.88;;;;;;;10.27;87.97;101556.75;5013246;28;20045;-78
2020/12/17 13:08:03;;;;;;;32.75;27.98;;;;;;;10.31;87.42;101547.56;5012822;28;20388;-78
2020/12/17 13:11:20;;;;;;;30.27;25.73;;;;;;;10.33;87.33;101548.31;5012016;28;20042;-80
2020/12/17 13:14:25;;;;;;;28.63;24.90;;;;;;;10.38;87.59;101548.00;5012631;28;20457;-77
2020/12/17 13:17:29;;;;;;;28.83;25.73;;;;;;;10.39;87.30;101547.88;5012553;28;20045;-78
2020/12/17 13:20:33;;;;;;;31.85;28.45;;;;;;;10.42;87.11;101550.34;5011635;28;20050;-77
2020/12/17 13:23:37;;;;;;;;;;;;;;;10.34;86.80;101549.19;5013107;28;20058;-77
2020/12/17 13:26:41;;;;;;;31.85;26.45;;;;;;;10.41;87.06;101553.16;5015058;28;19917;-78
2020/12/17 13:29:46;;;;;;;30.67;27.48;;;;;;;10.44;86.75;101550.28;5015525;28;20042;-77
2020/12/17 13:32:51;;;;;;;30.73;27.00;;;;;;;10.40;86.63;101546.06;5015733;28;20045;-78
2020/12/17 13:35:55;;;;;;;30.95;26.48;;;;;;;10.38;86.91;101553.34;5015126;28;20054;-78
2020/12/17 13:38:59;;;;;;;29.00;25.52;;;;;;;10.34;87.10;101550.00;5015864;28;20046;-78
2020/12/17 13:42:04;;;;;;;28.63;25.48;;;;;;;10.33;87.16;101559.03;5020143;28;20037;-77
2020/12/17 13:45:08;;;;;;;31.40;27.65;;;;;;;10.24;87.16;101559.69;5015762;28;20465;-78
2020/12/17 13:48:12;;;;;;;30.63;26.25;;;;;;;10.28;87.14;101571.03;5015304;28;20046;-78
2020/12/17 13:51:18;;;;;;;29.45;26.35;;;;;;;10.26;86.80;101572.97;5015541;28;20476;-79
2020/12/17 13:54:22;;;;;;;29.10;25.90;;;;;;;10.27;87.31;101575.53;5015590;28;20041;-80
2020/12/17 13:57:27;;;;;;;26.25;23.45;;;;;;;10.24;86.91;101570.41;5015373;28;20046;-79
2020/12/17 14:00:31;;;;;;;27.95;24.80;;;;;;;10.24;86.89;101567.72;5015511;28;20037;-78
2020/12/17 14:03:35;;;;;;;29.98;25.77;;;;;;;10.21;87.32;101567.06;5015740;28;20046;-78
2020/12/17 14:06:40;;;;;;;28.85;25.77;;;;;;;10.19;87.19;101569.00;5014935;28;20046;-78
2020/12/17 14:09:44;;;;;;;29.27;26.15;;;;;;;10.17;87.10;101568.22;5015862;28;20046;-79
2020/12/17 14:12:49;;;;;;;27.80;24.38;;;;;;;10.17;86.56;101576.28;5015258;28;20042;-78